sensor_id;sensor_type;location;lat;lon;timestamp;temperature;humidity
60717;DHT22;46566;52.700;6.192;2023-03-01T00:01:11;1.50;99.90
60717;DHT22;46566;52.700;6.192;2023-03-01T00:03:37;1.50;99.90
60717;DHT22;46566;52.700;6.192;2023-03-01T00:06:04;1.40;99.90
60717;DHT22;46566;52.700;6.192;2023-03-01T00:08:30;1.40;99.90
60717;DHT22;46566;52.700;6.192;2023-03-01T00:13:29;1.30;99.90
60717;DHT22;46566;52.700;6.192;2023-03-01T00:15:55;1.30;99.90
60717;DHT22;46566;52.700;6.192;2023-03-01T00:18:21;1.30;99.90
60717;DHT22;46566;52.700;6.192;2023-03-01T00:20:55;1.30;99.90
60717;DHT22;46566;52.700;6.192;2023-03-01T00:23:21;1.30;99.90
60717;DHT22;46566;52.700;6.192;2023-03-01T00:25:47;1.30;99.90
60717;DHT22;46566;52.700;6.192;2023-03-01T00:28:13;1.30;99.90
60717;DHT22;46566;52.700;6.192;2023-03-01T00:30:39;1.30;99.90
60717;DHT22;46566;52.700;6.192;2023-03-01T00:33:05;1.30;99.90
60717;DHT22;46566;52.700;6.192;2023-03-01T00:35:32;1.20;99.90
60717;DHT22;46566;52.700;6.192;2023-03-01T00:37:58;1.20;99.90
60717;DHT22;46566;52.700;6.192;2023-03-01T00:40:25;1.20;99.90
60717;DHT22;46566;52.700;6.192;2023-03-01T00:42:51;1.20;99.90
60717;DHT22;46566;52.700;6.192;2023-03-01T00:45:17;1.10;99.90
60717;DHT22;46566;52.700;6.192;2023-03-01T00:47:43;1.10;99.90
60717;DHT22;46566;52.700;6.192;2023-03-01T00:50:10;1.10;99.90
60717;DHT22;46566;52.700;6.192;2023-03-01T00:52:36;1.10;99.90
60717;DHT22;46566;52.700;6.192;2023-03-01T00:55:02;1.10;99.90
60717;DHT22;46566;52.700;6.192;2023-03-01T00:57:28;1.10;99.90
60717;DHT22;46566;52.700;6.192;2023-03-01T00:59:54;1.10;99.90
60717;DHT22;46566;52.700;6.192;2023-03-01T01:02:20;1.00;99.90
60717;DHT22;46566;52.700;6.192;2023-03-01T01:04:46;1.00;99.90
60717;DHT22;46566;52.700;6.192;2023-03-01T01:07:12;1.00;99.90
60717;DHT22;46566;52.700;6.192;2023-03-01T01:09:38;1.00;99.90
60717;DHT22;46566;52.700;6.192;2023-03-01T01:12:05;0.90;99.90
60717;DHT22;46566;52.700;6.192;2023-03-01T01:14:31;0.90;99.90
60717;DHT22;46566;52.700;6.192;2023-03-01T01:16:56;0.90;99.90
60717;DHT22;46566;52.700;6.192;2023-03-01T01:19:23;0.90;99.90
60717;DHT22;46566;52.700;6.192;2023-03-01T01:21:49;0.90;99.90
60717;DHT22;46566;52.700;6.192;2023-03-01T01:24:15;0.90;99.90
60717;DHT22;46566;52.700;6.192;2023-03-01T01:26:42;0.90;99.90
60717;DHT22;46566;52.700;6.192;2023-03-01T01:29:08;0.90;99.90
60717;DHT22;46566;52.700;6.192;2023-03-01T01:31:36;0.90;99.90
60717;DHT22;46566;52.700;6.192;2023-03-01T01:34:05;0.90;99.90
60717;DHT22;46566;52.700;6.192;2023-03-01T01:36:32;0.90;99.90
60717;DHT22;46566;52.700;6.192;2023-03-01T01:38:58;0.90;99.90
60717;DHT22;46566;52.700;6.192;2023-03-01T01:41:26;0.80;99.90
60717;DHT22;46566;52.700;6.192;2023-03-01T01:46:53;0.80;99.90
60717;DHT22;46566;52.700;6.192;2023-03-01T01:49:27;0.80;99.90
60717;DHT22;46566;52.700;6.192;2023-03-01T01:52:09;0.70;99.90
60717;DHT22;46566;52.700;6.192;2023-03-01T01:54:42;0.70;99.90
60717;DHT22;46566;52.700;6.192;2023-03-01T01:57:25;0.70;99.90
60717;DHT22;46566;52.700;6.192;2023-03-01T01:59:56;0.70;99.90
60717;DHT22;46566;52.700;6.192;2023-03-01T02:02:24;0.70;99.90
60717;DHT22;46566;52.700;6.192;2023-03-01T02:04:53;0.60;99.90
60717;DHT22;46566;52.700;6.192;2023-03-01T02:07:22;0.60;99.90
60717;DHT22;46566;52.700;6.192;2023-03-01T02:09:50;0.50;99.90
60717;DHT22;46566;52.700;6.192;2023-03-01T02:12:20;0.50;99.90
60717;DHT22;46566;52.700;6.192;2023-03-01T02:14:47;0.50;99.90
60717;DHT22;46566;52.700;6.192;2023-03-01T02:17:15;0.50;99.90
60717;DHT22;46566;52.700;6.192;2023-03-01T02:22:37;0.50;99.90
60717;DHT22;46566;52.700;6.192;2023-03-01T02:30:13;0.50;99.90
60717;DHT22;46566;52.700;6.192;2023-03-01T02:32:40;0.50;99.90
60717;DHT22;46566;52.700;6.192;2023-03-01T02:35:10;0.60;99.90
60717;DHT22;46566;52.700;6.192;2023-03-01T02:37:37;0.50;99.90
60717;DHT22;46566;52.700;6.192;2023-03-01T02:40:09;0.60;99.90
60717;DHT22;46566;52.700;6.192;2023-03-01T02:42:44;0.60;99.90
60717;DHT22;46566;52.700;6.192;2023-03-01T02:45:11;0.60;99.90
60717;DHT22;46566;52.700;6.192;2023-03-01T02:47:37;0.60;99.90
60717;DHT22;46566;52.700;6.192;2023-03-01T02:50:46;0.60;99.90
60717;DHT22;46566;52.700;6.192;2023-03-01T02:53:39;0.60;99.90
60717;DHT22;46566;52.700;6.192;2023-03-01T02:56:07;0.50;99.90
60717;DHT22;46566;52.700;6.192;2023-03-01T02:58:43;0.40;99.90
60717;DHT22;46566;52.700;6.192;2023-03-01T03:01:17;0.40;99.90
60717;DHT22;46566;52.700;6.192;2023-03-01T03:03:43;0.40;99.90
60717;DHT22;46566;52.700;6.192;2023-03-01T03:06:09;0.40;99.90
60717;DHT22;46566;52.700;6.192;2023-03-01T03:08:35;0.30;99.90
60717;DHT22;46566;52.700;6.192;2023-03-01T03:11:01;0.30;99.90
60717;DHT22;46566;52.700;6.192;2023-03-01T03:13:27;0.30;99.90
60717;DHT22;46566;52.700;6.192;2023-03-01T03:15:57;0.30;99.90
60717;DHT22;46566;52.700;6.192;2023-03-01T03:18:23;0.30;99.90
60717;DHT22;46566;52.700;6.192;2023-03-01T03:20:52;0.30;99.90
60717;DHT22;46566;52.700;6.192;2023-03-01T03:23:20;0.30;99.90
60717;DHT22;46566;52.700;6.192;2023-03-01T03:25:49;0.20;99.90
60717;DHT22;46566;52.700;6.192;2023-03-01T03:28:14;0.20;99.90
60717;DHT22;46566;52.700;6.192;2023-03-01T03:30:42;0.20;99.90
60717;DHT22;46566;52.700;6.192;2023-03-01T03:33:09;0.10;99.90
60717;DHT22;46566;52.700;6.192;2023-03-01T03:35:41;0.00;99.90
60717;DHT22;46566;52.700;6.192;2023-03-01T03:38:09;0.00;99.90
60717;DHT22;46566;52.700;6.192;2023-03-01T03:40:45;0.00;99.90
60717;DHT22;46566;52.700;6.192;2023-03-01T03:43:13;-0.10;99.90
60717;DHT22;46566;52.700;6.192;2023-03-01T03:45:40;-0.10;99.90
60717;DHT22;46566;52.700;6.192;2023-03-01T03:48:08;-0.10;99.90
60717;DHT22;46566;52.700;6.192;2023-03-01T03:50:35;-0.10;99.90
60717;DHT22;46566;52.700;6.192;2023-03-01T03:53:02;-0.20;99.90
60717;DHT22;46566;52.700;6.192;2023-03-01T03:55:28;-0.20;99.90
60717;DHT22;46566;52.700;6.192;2023-03-01T03:57:58;-0.30;99.90
60717;DHT22;46566;52.700;6.192;2023-03-01T04:00:27;-0.30;99.90
60717;DHT22;46566;52.700;6.192;2023-03-01T04:02:53;-0.30;99.90
60717;DHT22;46566;52.700;6.192;2023-03-01T04:05:22;-0.40;99.90
60717;DHT22;46566;52.700;6.192;2023-03-01T04:07:48;-0.40;99.90
60717;DHT22;46566;52.700;6.192;2023-03-01T04:10:18;-0.50;99.90
60717;DHT22;46566;52.700;6.192;2023-03-01T04:12:43;-0.50;99.90
60717;DHT22;46566;52.700;6.192;2023-03-01T04:15:10;-0.60;99.90
60717;DHT22;46566;52.700;6.192;2023-03-01T04:17:40;-0.60;99.90
60717;DHT22;46566;52.700;6.192;2023-03-01T04:20:11;-0.60;99.90
60717;DHT22;46566;52.700;6.192;2023-03-01T04:22:37;-0.70;99.90
60717;DHT22;46566;52.700;6.192;2023-03-01T04:25:03;-0.80;99.90
60717;DHT22;46566;52.700;6.192;2023-03-01T04:27:33;-0.80;99.90
60717;DHT22;46566;52.700;6.192;2023-03-01T04:29:59;-0.80;99.90
60717;DHT22;46566;52.700;6.192;2023-03-01T04:32:24;-0.90;99.90
60717;DHT22;46566;52.700;6.192;2023-03-01T04:34:50;-0.80;99.90
60717;DHT22;46566;52.700;6.192;2023-03-01T04:37:16;-0.80;99.90
60717;DHT22;46566;52.700;6.192;2023-03-01T04:39:41;-0.80;99.90
60717;DHT22;46566;52.700;6.192;2023-03-01T04:42:11;-0.80;99.90
60717;DHT22;46566;52.700;6.192;2023-03-01T04:44:37;-0.90;99.90
60717;DHT22;46566;52.700;6.192;2023-03-01T04:47:03;-0.90;99.90
60717;DHT22;46566;52.700;6.192;2023-03-01T04:49:29;-1.00;99.90
60717;DHT22;46566;52.700;6.192;2023-03-01T04:51:55;-1.00;99.90
60717;DHT22;46566;52.700;6.192;2023-03-01T04:54:21;-1.00;99.90
60717;DHT22;46566;52.700;6.192;2023-03-01T04:56:46;-1.00;99.90
60717;DHT22;46566;52.700;6.192;2023-03-01T04:59:12;-1.00;99.90
60717;DHT22;46566;52.700;6.192;2023-03-01T05:01:38;-1.00;99.90
60717;DHT22;46566;52.700;6.192;2023-03-01T05:04:08;-1.00;99.90
60717;DHT22;46566;52.700;6.192;2023-03-01T05:06:41;-1.00;99.90
60717;DHT22;46566;52.700;6.192;2023-03-01T05:09:10;-1.00;99.90
60717;DHT22;46566;52.700;6.192;2023-03-01T05:11:37;-1.00;99.90
60717;DHT22;46566;52.700;6.192;2023-03-01T05:14:06;-1.00;99.90
60717;DHT22;46566;52.700;6.192;2023-03-01T05:16:35;-1.00;99.90
60717;DHT22;46566;52.700;6.192;2023-03-01T05:19:05;-1.00;99.90
60717;DHT22;46566;52.700;6.192;2023-03-01T05:21:40;-1.00;99.90
60717;DHT22;46566;52.700;6.192;2023-03-01T05:24:26;-1.00;99.90
60717;DHT22;46566;52.700;6.192;2023-03-01T05:26:52;-1.00;99.90
60717;DHT22;46566;52.700;6.192;2023-03-01T05:29:22;-1.00;99.90
60717;DHT22;46566;52.700;6.192;2023-03-01T05:31:57;-1.00;99.90
60717;DHT22;46566;52.700;6.192;2023-03-01T05:34:29;-1.00;99.90
60717;DHT22;46566;52.700;6.192;2023-03-01T05:36:57;-1.00;99.90
60717;DHT22;46566;52.700;6.192;2023-03-01T05:39:25;-1.00;99.90
60717;DHT22;46566;52.700;6.192;2023-03-01T05:41:59;-1.00;99.90
60717;DHT22;46566;52.700;6.192;2023-03-01T05:44:27;-1.00;99.90
60717;DHT22;46566;52.700;6.192;2023-03-01T05:46:53;-1.10;99.90
60717;DHT22;46566;52.700;6.192;2023-03-01T05:49:19;-1.10;99.90
60717;DHT22;46566;52.700;6.192;2023-03-01T05:51:51;-1.00;99.90
60717;DHT22;46566;52.700;6.192;2023-03-01T05:54:18;-1.10;99.90
60717;DHT22;46566;52.700;6.192;2023-03-01T05:56:44;-1.00;99.90
60717;DHT22;46566;52.700;6.192;2023-03-01T06:20:59;-1.20;99.90
60717;DHT22;46566;52.700;6.192;2023-03-01T06:23:25;-1.20;99.90
60717;DHT22;46566;52.700;6.192;2023-03-01T06:25:51;-1.20;99.90
60717;DHT22;46566;52.700;6.192;2023-03-01T06:28:17;-1.20;99.90
60717;DHT22;46566;52.700;6.192;2023-03-01T06:30:43;-1.20;99.90
60717;DHT22;46566;52.700;6.192;2023-03-01T06:33:08;-1.10;99.90
60717;DHT22;46566;52.700;6.192;2023-03-01T06:35:34;-1.20;99.90
60717;DHT22;46566;52.700;6.192;2023-03-01T06:38:02;-1.20;99.90
60717;DHT22;46566;52.700;6.192;2023-03-01T06:40:29;-1.20;99.90
60717;DHT22;46566;52.700;6.192;2023-03-01T06:42:56;-1.20;99.90
60717;DHT22;46566;52.700;6.192;2023-03-01T06:45:22;-1.20;99.90
60717;DHT22;46566;52.700;6.192;2023-03-01T06:47:48;-1.10;99.90
60717;DHT22;46566;52.700;6.192;2023-03-01T06:50:15;-1.10;99.90
60717;DHT22;46566;52.700;6.192;2023-03-01T06:52:40;-1.10;99.90
60717;DHT22;46566;52.700;6.192;2023-03-01T06:55:06;-1.20;99.90
60717;DHT22;46566;52.700;6.192;2023-03-01T06:57:32;-1.20;99.90
60717;DHT22;46566;52.700;6.192;2023-03-01T06:59:58;-1.20;99.90
60717;DHT22;46566;52.700;6.192;2023-03-01T07:02:24;-1.10;99.90
60717;DHT22;46566;52.700;6.192;2023-03-01T07:04:50;-1.10;99.90
60717;DHT22;46566;52.700;6.192;2023-03-01T07:07:16;-1.10;99.90
60717;DHT22;46566;52.700;6.192;2023-03-01T07:26:51;-1.10;99.90
60717;DHT22;46566;52.700;6.192;2023-03-01T07:31:44;-1.00;99.90
60717;DHT22;46566;52.700;6.192;2023-03-01T07:36:36;-0.90;99.90
60717;DHT22;46566;52.700;6.192;2023-03-01T07:39:03;-0.90;99.90
60717;DHT22;46566;52.700;6.192;2023-03-01T07:41:29;-0.80;99.90
60717;DHT22;46566;52.700;6.192;2023-03-01T07:43:55;-0.70;99.90
60717;DHT22;46566;52.700;6.192;2023-03-01T07:46:20;-0.70;99.90
60717;DHT22;46566;52.700;6.192;2023-03-01T07:48:46;-0.70;99.90
60717;DHT22;46566;52.700;6.192;2023-03-01T07:53:39;-0.50;99.90
60717;DHT22;46566;52.700;6.192;2023-03-01T07:58:34;-0.40;99.90
60717;DHT22;46566;52.700;6.192;2023-03-01T08:01:05;-0.30;99.90
60717;DHT22;46566;52.700;6.192;2023-03-01T08:03:31;-0.30;99.90
60717;DHT22;46566;52.700;6.192;2023-03-01T08:06:00;-0.20;99.90
60717;DHT22;46566;52.700;6.192;2023-03-01T08:08:26;-0.20;99.90
60717;DHT22;46566;52.700;6.192;2023-03-01T08:10:51;-0.10;99.90
60717;DHT22;46566;52.700;6.192;2023-03-01T08:13:17;0.00;99.90
60717;DHT22;46566;52.700;6.192;2023-03-01T08:15:51;0.10;99.90
60717;DHT22;46566;52.700;6.192;2023-03-01T09:09:36;10.20;99.90
60717;DHT22;46566;52.700;6.192;2023-03-01T09:12:02;9.60;99.90
60717;DHT22;46566;52.700;6.192;2023-03-01T09:14:28;8.90;99.90
60717;DHT22;46566;52.700;6.192;2023-03-01T09:16:54;8.50;99.90
60717;DHT22;46566;52.700;6.192;2023-03-01T09:19:20;8.20;99.90
60717;DHT22;46566;52.700;6.192;2023-03-01T09:21:46;8.00;99.90
60717;DHT22;46566;52.700;6.192;2023-03-01T09:24:20;8.00;99.90
60717;DHT22;46566;52.700;6.192;2023-03-01T09:26:46;7.90;99.90
60717;DHT22;46566;52.700;6.192;2023-03-01T09:29:13;7.80;99.90
60717;DHT22;46566;52.700;6.192;2023-03-01T09:31:39;7.90;99.90
60717;DHT22;46566;52.700;6.192;2023-03-01T09:34:05;7.70;99.90
60717;DHT22;46566;52.700;6.192;2023-03-01T09:36:32;7.60;99.90
60717;DHT22;46566;52.700;6.192;2023-03-01T09:38:59;7.70;99.90
60717;DHT22;46566;52.700;6.192;2023-03-01T09:41:45;7.80;99.90
60717;DHT22;46566;52.700;6.192;2023-03-01T09:47:12;7.90;99.90
60717;DHT22;46566;52.700;6.192;2023-03-01T09:52:47;8.10;99.90
60717;DHT22;46566;52.700;6.192;2023-03-01T09:55:20;8.10;99.90
60717;DHT22;46566;52.700;6.192;2023-03-01T09:58:29;8.20;99.90
60717;DHT22;46566;52.700;6.192;2023-03-01T10:09:40;8.10;99.90
60717;DHT22;46566;52.700;6.192;2023-03-01T10:12:36;8.30;99.90
60717;DHT22;46566;52.700;6.192;2023-03-01T10:15:15;8.40;99.90
60717;DHT22;46566;52.700;6.192;2023-03-01T10:17:50;8.40;99.90
60717;DHT22;46566;52.700;6.192;2023-03-01T10:21:02;8.50;99.90
60717;DHT22;46566;52.700;6.192;2023-03-01T10:23:31;8.60;99.90
60717;DHT22;46566;52.700;6.192;2023-03-01T10:26:32;8.60;99.90
60717;DHT22;46566;52.700;6.192;2023-03-01T10:29:05;8.70;99.90
60717;DHT22;46566;52.700;6.192;2023-03-01T10:31:58;8.90;99.90
60717;DHT22;46566;52.700;6.192;2023-03-01T10:34:33;9.00;95.60
60717;DHT22;46566;52.700;6.192;2023-03-01T10:37:29;9.20;99.90
60717;DHT22;46566;52.700;6.192;2023-03-01T10:40:05;9.30;98.50
60717;DHT22;46566;52.700;6.192;2023-03-01T10:43:05;9.30;79.70
60717;DHT22;46566;52.700;6.192;2023-03-01T10:48:12;9.40;78.20
60717;DHT22;46566;52.700;6.192;2023-03-01T10:51:06;9.40;79.70
60717;DHT22;46566;52.700;6.192;2023-03-01T10:53:45;9.50;87.10
60717;DHT22;46566;52.700;6.192;2023-03-01T10:56:14;9.50;75.90
60717;DHT22;46566;52.700;6.192;2023-03-01T10:59:09;9.60;70.30
60717;DHT22;46566;52.700;6.192;2023-03-01T11:01:44;9.70;74.80
60717;DHT22;46566;52.700;6.192;2023-03-01T11:07:22;9.60;73.00
60717;DHT22;46566;52.700;6.192;2023-03-01T11:09:48;9.70;76.90
60717;DHT22;46566;52.700;6.192;2023-03-01T11:12:39;9.80;79.80
60717;DHT22;46566;52.700;6.192;2023-03-01T11:15:08;9.90;73.40
60717;DHT22;46566;52.700;6.192;2023-03-01T11:20:36;10.10;73.40
60717;DHT22;46566;52.700;6.192;2023-03-01T11:23:08;10.30;70.20
60717;DHT22;46566;52.700;6.192;2023-03-01T11:25:41;10.40;77.10
60717;DHT22;46566;52.700;6.192;2023-03-01T11:28:16;10.40;67.40
60717;DHT22;46566;52.700;6.192;2023-03-01T11:33:48;10.60;68.50
60717;DHT22;46566;52.700;6.192;2023-03-01T11:36:51;10.80;70.00
60717;DHT22;46566;52.700;6.192;2023-03-01T11:41:49;11.00;66.60
60717;DHT22;46566;52.700;6.192;2023-03-01T11:44:42;10.90;64.30
60717;DHT22;46566;52.700;6.192;2023-03-01T11:47:23;10.90;65.90
60717;DHT22;46566;52.700;6.192;2023-03-01T12:26:59;13.00;60.20
60717;DHT22;46566;52.700;6.192;2023-03-01T12:35:33;13.70;56.50
60717;DHT22;46566;52.700;6.192;2023-03-01T12:48:42;13.70;56.10
60717;DHT22;46566;52.700;6.192;2023-03-01T12:51:31;13.70;56.90
60717;DHT22;46566;52.700;6.192;2023-03-01T12:54:00;13.30;54.80
60717;DHT22;46566;52.700;6.192;2023-03-01T12:56:30;12.90;55.00
60717;DHT22;46566;52.700;6.192;2023-03-01T13:08:56;12.50;58.20
60717;DHT22;46566;52.700;6.192;2023-03-01T13:11:23;12.60;60.00
60717;DHT22;46566;52.700;6.192;2023-03-01T13:16:47;13.00;59.50
60717;DHT22;46566;52.700;6.192;2023-03-01T13:19:35;13.20;57.70
60717;DHT22;46566;52.700;6.192;2023-03-01T13:22:29;13.50;59.40
60717;DHT22;46566;52.700;6.192;2023-03-01T13:25:18;13.60;56.80
60717;DHT22;46566;52.700;6.192;2023-03-01T13:27:45;13.80;57.30
60717;DHT22;46566;52.700;6.192;2023-03-01T13:35:48;13.70;53.70
60717;DHT22;46566;52.700;6.192;2023-03-01T13:44:32;13.30;55.20
60717;DHT22;46566;52.700;6.192;2023-03-01T13:47:23;13.20;57.60
60717;DHT22;46566;52.700;6.192;2023-03-01T13:50:01;13.20;57.20
60717;DHT22;46566;52.700;6.192;2023-03-01T13:52:54;13.20;58.50
60717;DHT22;46566;52.700;6.192;2023-03-01T13:55:42;13.00;58.00
60717;DHT22;46566;52.700;6.192;2023-03-01T13:58:33;12.70;58.50
60717;DHT22;46566;52.700;6.192;2023-03-01T14:01:02;12.50;57.20
60717;DHT22;46566;52.700;6.192;2023-03-01T14:03:29;12.30;58.20
60717;DHT22;46566;52.700;6.192;2023-03-01T14:08:50;12.00;58.00
60717;DHT22;46566;52.700;6.192;2023-03-01T14:20:53;11.60;56.70
60717;DHT22;46566;52.700;6.192;2023-03-01T14:23:21;11.40;59.00
60717;DHT22;46566;52.700;6.192;2023-03-01T14:28:33;11.40;60.30
60717;DHT22;46566;52.700;6.192;2023-03-01T14:31:03;11.40;61.50
60717;DHT22;46566;52.700;6.192;2023-03-01T14:33:34;11.30;61.50
60717;DHT22;46566;52.700;6.192;2023-03-01T14:36:28;11.10;59.90
60717;DHT22;46566;52.700;6.192;2023-03-01T14:38:53;11.00;61.30
60717;DHT22;46566;52.700;6.192;2023-03-01T14:41:24;10.90;63.10
60717;DHT22;46566;52.700;6.192;2023-03-01T14:44:19;10.80;61.40
60717;DHT22;46566;52.700;6.192;2023-03-01T14:46:52;10.70;62.60
60717;DHT22;46566;52.700;6.192;2023-03-01T14:49:26;10.60;61.00
60717;DHT22;46566;52.700;6.192;2023-03-01T14:52:16;10.40;63.50
60717;DHT22;46566;52.700;6.192;2023-03-01T14:54:44;10.20;62.00
60717;DHT22;46566;52.700;6.192;2023-03-01T14:57:23;10.00;62.40
60717;DHT22;46566;52.700;6.192;2023-03-01T15:00:07;9.80;63.50
60717;DHT22;46566;52.700;6.192;2023-03-01T15:02:34;9.70;62.80
60717;DHT22;46566;52.700;6.192;2023-03-01T15:05:02;9.60;63.50
60717;DHT22;46566;52.700;6.192;2023-03-01T15:07:58;9.40;62.60
60717;DHT22;46566;52.700;6.192;2023-03-01T15:10:29;9.30;64.70
60717;DHT22;46566;52.700;6.192;2023-03-01T15:12:55;9.20;64.00
60717;DHT22;46566;52.700;6.192;2023-03-01T15:15:30;9.10;64.80
60717;DHT22;46566;52.700;6.192;2023-03-01T15:18:19;9.10;66.00
60717;DHT22;46566;52.700;6.192;2023-03-01T15:20:47;8.90;65.80
60717;DHT22;46566;52.700;6.192;2023-03-01T15:23:34;8.90;66.70
60717;DHT22;46566;52.700;6.192;2023-03-01T15:26:01;8.90;67.90
60717;DHT22;46566;52.700;6.192;2023-03-01T15:28:34;8.80;67.90
60717;DHT22;46566;52.700;6.192;2023-03-01T15:31:28;8.80;69.40
60717;DHT22;46566;52.700;6.192;2023-03-01T15:34:22;8.70;70.70
60717;DHT22;46566;52.700;6.192;2023-03-01T15:39:58;8.60;66.20
60717;DHT22;46566;52.700;6.192;2023-03-01T15:42:46;8.50;67.50
60717;DHT22;46566;52.700;6.192;2023-03-01T15:47:57;8.40;70.30
60717;DHT22;46566;52.700;6.192;2023-03-01T15:50:54;8.30;69.80
60717;DHT22;46566;52.700;6.192;2023-03-01T15:53:19;8.40;72.10
60717;DHT22;46566;52.700;6.192;2023-03-01T15:55:45;8.30;70.30
60717;DHT22;46566;52.700;6.192;2023-03-01T15:58:39;8.30;69.00
60717;DHT22;46566;52.700;6.192;2023-03-01T16:01:14;8.30;69.10
60717;DHT22;46566;52.700;6.192;2023-03-01T16:03:40;8.20;68.50
60717;DHT22;46566;52.700;6.192;2023-03-01T16:06:25;8.10;70.00
60717;DHT22;46566;52.700;6.192;2023-03-01T16:08:51;8.10;70.40
60717;DHT22;46566;52.700;6.192;2023-03-01T16:11:19;8.10;72.60
60717;DHT22;46566;52.700;6.192;2023-03-01T16:13:45;8.00;73.40
60717;DHT22;46566;52.700;6.192;2023-03-01T16:16:13;8.00;74.60
60717;DHT22;46566;52.700;6.192;2023-03-01T16:18:56;8.00;71.90
60717;DHT22;46566;52.700;6.192;2023-03-01T16:21:24;7.90;71.00
60717;DHT22;46566;52.700;6.192;2023-03-01T16:23:50;7.80;70.10
60717;DHT22;46566;52.700;6.192;2023-03-01T16:26:17;7.80;71.20
60717;DHT22;46566;52.700;6.192;2023-03-01T16:29:09;7.70;71.70
60717;DHT22;46566;52.700;6.192;2023-03-01T16:31:34;7.60;73.70
60717;DHT22;46566;52.700;6.192;2023-03-01T16:34:00;7.60;74.00
60717;DHT22;46566;52.700;6.192;2023-03-01T16:36:27;7.60;76.40
60717;DHT22;46566;52.700;6.192;2023-03-01T16:39:31;7.50;77.20
60717;DHT22;46566;52.700;6.192;2023-03-01T16:42:00;7.50;81.90
60717;DHT22;46566;52.700;6.192;2023-03-01T16:44:57;7.40;85.20
60717;DHT22;46566;52.700;6.192;2023-03-01T16:47:23;7.40;91.70
60717;DHT22;46566;52.700;6.192;2023-03-01T16:49:52;7.40;82.90
60717;DHT22;46566;52.700;6.192;2023-03-01T16:52:43;7.40;95.40
60717;DHT22;46566;52.700;6.192;2023-03-01T16:55:09;7.40;99.50
60717;DHT22;46566;52.700;6.192;2023-03-01T16:57:39;7.40;99.90
60717;DHT22;46566;52.700;6.192;2023-03-01T17:00:06;7.30;99.90
60717;DHT22;46566;52.700;6.192;2023-03-01T17:05:31;7.30;99.90
60717;DHT22;46566;52.700;6.192;2023-03-01T17:07:57;7.20;99.90
60717;DHT22;46566;52.700;6.192;2023-03-01T17:10:50;7.20;99.90
60717;DHT22;46566;52.700;6.192;2023-03-01T17:13:15;7.10;99.90
60717;DHT22;46566;52.700;6.192;2023-03-01T17:15:41;7.10;99.90
60717;DHT22;46566;52.700;6.192;2023-03-01T17:18:08;7.00;99.90
60717;DHT22;46566;52.700;6.192;2023-03-01T17:20:59;7.00;99.90
60717;DHT22;46566;52.700;6.192;2023-03-01T17:23:26;6.90;99.90
60717;DHT22;46566;52.700;6.192;2023-03-01T17:25:52;6.90;99.90
60717;DHT22;46566;52.700;6.192;2023-03-01T17:31:06;6.70;99.90
60717;DHT22;46566;52.700;6.192;2023-03-01T17:33:31;6.70;99.90
60717;DHT22;46566;52.700;6.192;2023-03-01T17:35:58;6.60;99.90
60717;DHT22;46566;52.700;6.192;2023-03-01T17:38:24;6.60;99.90
60717;DHT22;46566;52.700;6.192;2023-03-01T17:40:50;6.50;99.90
60717;DHT22;46566;52.700;6.192;2023-03-01T17:43:16;6.50;99.90
60717;DHT22;46566;52.700;6.192;2023-03-01T17:45:45;6.40;99.90
60717;DHT22;46566;52.700;6.192;2023-03-01T17:48:17;6.40;99.90
60717;DHT22;46566;52.700;6.192;2023-03-01T17:50:43;6.30;99.90
60717;DHT22;46566;52.700;6.192;2023-03-01T17:53:09;6.30;99.90
60717;DHT22;46566;52.700;6.192;2023-03-01T17:55:37;6.20;99.90
60717;DHT22;46566;52.700;6.192;2023-03-01T17:58:04;6.20;99.90
60717;DHT22;46566;52.700;6.192;2023-03-01T18:00:30;6.20;99.90
60717;DHT22;46566;52.700;6.192;2023-03-01T18:02:56;6.20;99.90
60717;DHT22;46566;52.700;6.192;2023-03-01T18:05:22;6.20;99.90
60717;DHT22;46566;52.700;6.192;2023-03-01T18:07:49;6.20;99.90
60717;DHT22;46566;52.700;6.192;2023-03-01T18:10:15;6.20;99.90
60717;DHT22;46566;52.700;6.192;2023-03-01T18:12:41;6.20;99.90
60717;DHT22;46566;52.700;6.192;2023-03-01T18:15:07;6.10;99.90
60717;DHT22;46566;52.700;6.192;2023-03-01T18:17:33;6.10;99.90
60717;DHT22;46566;52.700;6.192;2023-03-01T18:19:59;6.00;99.90
60717;DHT22;46566;52.700;6.192;2023-03-01T18:22:24;6.00;99.90
60717;DHT22;46566;52.700;6.192;2023-03-01T18:24:50;6.00;99.90
60717;DHT22;46566;52.700;6.192;2023-03-01T18:27:16;6.00;99.90
60717;DHT22;46566;52.700;6.192;2023-03-01T18:29:42;5.90;99.90
60717;DHT22;46566;52.700;6.192;2023-03-01T18:32:07;5.90;99.90
60717;DHT22;46566;52.700;6.192;2023-03-01T18:34:33;5.80;99.90
60717;DHT22;46566;52.700;6.192;2023-03-01T18:37:00;5.80;99.90
60717;DHT22;46566;52.700;6.192;2023-03-01T18:39:26;5.80;99.90
60717;DHT22;46566;52.700;6.192;2023-03-01T18:41:51;5.80;99.90
60717;DHT22;46566;52.700;6.192;2023-03-01T18:44:17;5.70;99.90
60717;DHT22;46566;52.700;6.192;2023-03-01T18:46:43;5.70;99.90
60717;DHT22;46566;52.700;6.192;2023-03-01T18:49:11;5.60;99.90
60717;DHT22;46566;52.700;6.192;2023-03-01T18:51:37;5.50;99.90
60717;DHT22;46566;52.700;6.192;2023-03-01T18:54:04;5.40;99.90
60717;DHT22;46566;52.700;6.192;2023-03-01T18:56:31;5.30;99.90
60717;DHT22;46566;52.700;6.192;2023-03-01T18:58:57;5.30;99.90
60717;DHT22;46566;52.700;6.192;2023-03-01T19:01:26;5.20;99.90
60717;DHT22;46566;52.700;6.192;2023-03-01T19:03:53;5.10;99.90
60717;DHT22;46566;52.700;6.192;2023-03-01T19:06:21;5.10;99.90
60717;DHT22;46566;52.700;6.192;2023-03-01T19:08:47;5.10;99.90
60717;DHT22;46566;52.700;6.192;2023-03-01T19:11:14;5.10;99.90
60717;DHT22;46566;52.700;6.192;2023-03-01T19:13:44;5.10;99.90
60717;DHT22;46566;52.700;6.192;2023-03-01T19:16:16;5.00;99.90
60717;DHT22;46566;52.700;6.192;2023-03-01T19:18:43;5.00;99.90
60717;DHT22;46566;52.700;6.192;2023-03-01T19:21:15;5.00;99.90
60717;DHT22;46566;52.700;6.192;2023-03-01T19:23:41;4.90;99.90
60717;DHT22;46566;52.700;6.192;2023-03-01T19:26:11;4.90;99.90
60717;DHT22;46566;52.700;6.192;2023-03-01T19:28:38;4.90;99.90
60717;DHT22;46566;52.700;6.192;2023-03-01T19:31:06;4.90;99.90
60717;DHT22;46566;52.700;6.192;2023-03-01T19:33:33;4.90;99.90
60717;DHT22;46566;52.700;6.192;2023-03-01T19:36:00;4.80;99.90
60717;DHT22;46566;52.700;6.192;2023-03-01T19:38:27;4.80;99.90
60717;DHT22;46566;52.700;6.192;2023-03-01T19:40:53;4.80;99.90
60717;DHT22;46566;52.700;6.192;2023-03-01T19:43:20;4.80;99.90
60717;DHT22;46566;52.700;6.192;2023-03-01T19:45:50;4.70;99.90
60717;DHT22;46566;52.700;6.192;2023-03-01T19:48:16;4.70;99.90
60717;DHT22;46566;52.700;6.192;2023-03-01T19:50:42;4.70;99.90
60717;DHT22;46566;52.700;6.192;2023-03-01T19:53:10;4.70;99.90
60717;DHT22;46566;52.700;6.192;2023-03-01T19:55:36;4.60;99.90
60717;DHT22;46566;52.700;6.192;2023-03-01T19:58:03;4.60;99.90
60717;DHT22;46566;52.700;6.192;2023-03-01T20:00:31;4.50;99.90
60717;DHT22;46566;52.700;6.192;2023-03-01T20:02:57;4.50;99.90
60717;DHT22;46566;52.700;6.192;2023-03-01T20:05:23;4.40;99.90
60717;DHT22;46566;52.700;6.192;2023-03-01T20:07:48;4.40;99.90
60717;DHT22;46566;52.700;6.192;2023-03-01T20:10:16;4.30;99.90